Terminal Aerodrome Forecast
Issued by NWS

Home | Current Version | Previous Version | Text Only | Print | Product List | Glossary On
Versions: 1 2 3 4 5 6 7 8 9 10 11 12 13 14 15 16 17 18 19 20 21 22 23 24 25 26 27 28 29
000
FTUS41 KOKX 270500
TAFGON
TAF
KGON 270523Z 2706/2806 VRB03KT P6SM SCT080 BKN250
     FM271200 36005KT P6SM BKN050
     FM271800 34007KT P6SM FEW025 BKN040
     FM272100 34006KT P6SM SCT030 SCT070
     FM280100 34006KT P6SM SKC=

USA.gov is the U.S. government's official web portal to all federal, state and local government web resources and services.